Time;durP1;ratioP1;P1;durP2;ratioP2;P2;SDS_P1;SDS_P2;PMS_P1;PMS_P2;Temp;Humidity;BMP_temperature;BMP_pressure;BME280_temperature;BME280_humidity;BME280_pressure;Samples;Min_cycle;Max_cycle;Signal;HPM_P1;HPM_P2
2021/12/24 00:01:22;;;;;;;32.47;17.10;;;;;;;0.31;100.00;99224.16;5018356;28;20231;-71
2021/12/24 00:03:50;;;;;;;36.90;19.00;;;;;;;0.39;100.00;99234.38;5020654;28;20204;-70
2021/12/24 00:06:16;;;;;;;34.57;18.43;;;;;;;0.42;100.00;99225.81;5013799;28;20219;-71
2021/12/24 00:08:45;;;;;;;34.63;18.03;;;;;;;0.41;100.00;99219.84;5018283;28;20204;-70
2021/12/24 00:11:13;;;;;;;35.27;18.70;;;;;;;0.41;100.00;99227.53;5012062;28;20292;-70
2021/12/24 00:13:43;;;;;;;33.93;17.43;;;;;;;0.44;100.00;99214.69;5018808;28;20215;-71
2021/12/24 00:16:19;;;;;;;37.17;19.53;;;;;;;0.47;100.00;99222.34;5020606;28;20200;-71
2021/12/24 00:18:49;;;;;;;34.73;17.87;;;;;;;0.51;100.00;99220.59;5023667;28;20668;-71
2021/12/24 00:35:11;;;;;;;35.97;18.33;;;;;;;0.66;100.00;99210.22;5016754;28;20279;-70
2021/12/24 00:37:41;;;;;;;36.57;18.93;;;;;;;0.76;100.00;99203.31;5022459;28;20287;-71
2021/12/24 00:40:15;;;;;;;35.63;18.53;;;;;;;0.78;100.00;99198.16;5021592;28;20566;-70
2021/12/24 00:42:44;;;;;;;39.13;19.10;;;;;;;0.78;100.00;99193.88;5026258;28;20203;-70
2021/12/24 00:45:12;;;;;;;40.93;19.23;;;;;;;0.82;100.00;99200.66;5025556;28;20302;-71
2021/12/24 00:47:39;;;;;;;34.70;18.27;;;;;;;0.81;100.00;99201.56;5023611;28;20231;-71
2021/12/24 00:50:10;;;;;;;38.10;19.27;;;;;;;0.81;100.00;99193.84;5019039;28;20223;-71
2021/12/24 00:52:51;;;;;;;35.67;18.30;;;;;;;0.88;100.00;99197.19;5021687;28;20269;-71
2021/12/24 00:55:19;;;;;;;37.03;18.50;;;;;;;0.90;100.00;99201.47;5019989;28;20612;-70
2021/12/24 00:57:48;;;;;;;37.57;18.17;;;;;;;0.90;100.00;99200.63;5018753;28;20214;-71
2021/12/24 01:00:18;;;;;;;37.00;18.53;;;;;;;0.92;100.00;99194.59;5026848;28;20233;-70
2021/12/24 01:02:45;;;;;;;36.10;19.20;;;;;;;0.97;100.00;99183.41;5023844;28;20215;-71
2021/12/24 01:05:14;;;;;;;41.27;20.33;;;;;;;1.00;100.00;99184.22;5020020;28;20261;-71
2021/12/24 01:07:44;;;;;;;38.23;18.80;;;;;;;1.01;100.00;99183.38;5023192;28;20228;-71
2021/12/24 01:10:12;;;;;;;36.70;17.87;;;;;;;1.04;100.00;99172.22;5016716;28;20255;-71
2021/12/24 01:12:39;;;;;;;39.60;20.00;;;;;;;1.09;100.00;99168.75;5015184;28;20468;-70
2021/12/24 01:15:07;;;;;;;38.40;18.83;;;;;;;1.10;100.00;99165.31;5014159;28;20215;-70
2021/12/24 01:17:40;;;;;;;37.77;18.87;;;;;;;1.08;100.00;99169.63;5015267;28;20196;-71
2021/12/24 01:20:20;;;;;;;33.90;17.37;;;;;;;1.12;100.00;99168.69;5025539;28;20700;-71
2021/12/24 01:23:26;;;;;;;36.07;19.27;;;;;;;1.11;100.00;99164.44;5015383;28;20214;-71
2021/12/24 01:25:57;;;;;;;34.97;19.17;;;;;;;1.14;100.00;99166.13;5018308;28;21488;-71
2021/12/24 01:28:40;;;;;;;37.97;19.57;;;;;;;1.19;100.00;99166.94;5017570;28;20216;-70
2021/12/24 01:39:38;;;;;;;36.50;18.27;;;;;;;1.26;100.00;99148.00;5016999;28;20208;-71
2021/12/24 01:44:49;;;;;;;43.70;19.27;;;;;;;1.27;100.00;99148.88;5027702;28;20856;-71
2021/12/24 01:47:15;;;;;;;35.00;18.80;;;;;;;1.29;100.00;99147.97;5017537;28;20220;-70
2021/12/24 01:49:43;;;;;;;39.20;18.53;;;;;;;1.34;100.00;99145.38;5023069;28;20208;-71
2021/12/24 01:52:10;;;;;;;39.43;19.37;;;;;;;1.33;100.00;99139.34;5016653;28;20629;-72
2021/12/24 01:54:41;;;;;;;36.07;18.77;;;;;;;1.36;100.00;99138.50;5027471;28;20934;-71
2021/12/24 01:57:08;;;;;;;37.63;19.80;;;;;;;1.39;100.00;99132.44;5020899;28;20261;-71
2021/12/24 01:59:34;;;;;;;36.13;18.67;;;;;;;1.40;100.00;99135.00;5024365;28;20212;-71
2021/12/24 02:02:01;;;;;;;38.83;18.30;;;;;;;1.42;100.00;99133.25;5015511;28;20298;-71
2021/12/24 02:04:28;;;;;;;36.80;17.87;;;;;;;1.44;100.00;99122.97;5024010;28;20666;-71
2021/12/24 02:06:54;;;;;;;39.00;18.00;;;;;;;1.46;100.00;99119.53;5020045;28;20219;-71
2021/12/24 02:09:21;;;;;;;36.23;18.80;;;;;;;1.50;100.00;99121.19;5016821;28;20265;-70
2021/12/24 02:11:49;;;;;;;38.43;18.47;;;;;;;1.56;100.00;99114.25;5022993;28;20969;-71
2021/12/24 02:14:20;;;;;;;36.83;17.87;;;;;;;1.57;100.00;99109.09;5028874;28;20251;-71
2021/12/24 02:17:07;;;;;;;34.23;17.40;;;;;;;1.59;100.00;99107.34;5021053;28;20200;-71
2021/12/24 02:30:40;;;;;;;31.30;17.00;;;;;;;1.79;100.00;99101.91;5016545;28;20278;-72
2021/12/24 02:33:07;;;;;;;27.63;15.27;;;;;;;1.83;100.00;99090.75;5023963;28;20404;-71
2021/12/24 02:35:35;;;;;;;31.07;16.30;;;;;;;1.84;100.00;99089.84;5016832;28;20669;-71
2021/12/24 02:38:04;;;;;;;32.20;16.77;;;;;;;1.82;100.00;99083.91;5020899;28;20748;-72
2021/12/24 02:40:32;;;;;;;29.97;15.27;;;;;;;1.86;100.00;99079.56;5017536;28;20236;-72
2021/12/24 02:42:59;;;;;;;31.47;15.70;;;;;;;1.89;100.00;99082.09;5022144;28;20866;-71
2021/12/24 02:45:30;;;;;;;31.40;15.37;;;;;;;1.88;100.00;99077.81;5018419;28;20212;-72
2021/12/24 02:48:25;;;;;;;30.30;15.30;;;;;;;1.95;100.00;99074.25;5021680;28;20223;-72
2021/12/24 02:53:57;;;;;;;29.43;14.43;;;;;;;2.08;100.00;99067.22;5024533;28;21156;-71
2021/12/24 02:56:26;;;;;;;28.33;13.83;;;;;;;2.13;100.00;99069.69;5023036;28;20666;-72
2021/12/24 02:58:53;;;;;;;28.23;14.37;;;;;;;2.15;100.00;99068.81;5026590;28;20490;-72
2021/12/24 03:01:22;;;;;;;24.57;13.33;;;;;;;2.20;100.00;99064.44;5024801;28;20212;-71
2021/12/24 03:03:50;;;;;;;26.57;13.53;;;;;;;2.20;100.00;99069.59;5023522;28;20780;-72
2021/12/24 03:06:19;;;;;;;26.30;13.43;;;;;;;2.27;100.00;99060.91;5025911;28;20258;-71
2021/12/24 03:08:47;;;;;;;27.50;12.73;;;;;;;2.31;100.00;99066.84;5020479;28;20723;-71
2021/12/24 03:11:14;;;;;;;24.17;13.00;;;;;;;2.33;100.00;99067.66;5021716;28;20598;-71
2021/12/24 03:13:41;;;;;;;26.77;13.50;;;;;;;2.37;100.00;99065.88;5022482;28;20569;-72
2021/12/24 03:16:09;;;;;;;26.67;13.40;;;;;;;2.38;100.00;99063.28;5018481;28;20215;-71
2021/12/24 03:18:38;;;;;;;27.37;13.80;;;;;;;2.40;100.00;99061.53;5017460;28;20218;-71
2021/12/24 03:21:09;;;;;;;28.23;13.87;;;;;;;2.41;100.00;99067.50;5030099;28;20228;-71
2021/12/24 03:23:39;;;;;;;26.77;12.97;;;;;;;2.44;100.00;99070.88;5016568;28;20204;-70
2021/12/24 03:26:09;;;;;;;28.27;13.90;;;;;;;2.50;100.00;99063.91;5026900;28;20200;-70
2021/12/24 03:28:35;;;;;;;24.50;13.83;;;;;;;2.53;100.00;99067.28;5019066;28;20252;-72
2021/12/24 03:31:03;;;;;;;25.13;14.10;;;;;;;2.54;100.00;99066.41;5016916;28;20946;-71
2021/12/24 03:33:29;;;;;;;25.53;13.13;;;;;;;2.57;100.00;99070.66;5021752;28;20937;-71
2021/12/24 03:35:56;;;;;;;24.20;13.43;;;;;;;2.58;100.00;99073.19;5026676;28;20208;-72
2021/12/24 03:38:24;;;;;;;24.13;12.93;;;;;;;2.62;100.00;99063.69;5017089;28;20215;-71
2021/12/24 03:40:50;;;;;;;25.63;13.27;;;;;;;2.61;100.00;99056.88;5016740;28;20215;-70
2021/12/24 03:43:18;;;;;;;26.80;14.03;;;;;;;2.64;100.00;99061.97;5023627;28;20202;-71
2021/12/24 03:45:55;;;;;;;25.60;13.50;;;;;;;2.65;100.00;99061.06;5020202;28;20267;-70
2021/12/24 03:48:26;;;;;;;25.30;13.43;;;;;;;2.68;100.00;99062.75;5023368;28;20215;-71
2021/12/24 03:51:01;;;;;;;26.67;12.83;;;;;;;2.72;100.00;99049.78;5020037;28;20342;-71
2021/12/24 03:56:11;;;;;;;27.07;13.67;;;;;;;2.72;100.00;99056.66;5015634;28;20298;-72
2021/12/24 03:58:39;;;;;;;24.87;13.07;;;;;;;2.71;100.00;99054.94;5018867;28;20654;-72
2021/12/24 04:01:25;;;;;;;27.07;13.37;;;;;;;2.78;100.00;99053.94;5021166;28;20585;-72
2021/12/24 04:04:12;;;;;;;22.87;12.30;;;;;;;2.79;100.00;99053.94;5020212;28;20699;-70
2021/12/24 04:07:08;;;;;;;27.60;12.57;;;;;;;2.75;100.00;99062.59;5015156;28;20207;-70
2021/12/24 04:10:00;;;;;;;24.50;12.97;;;;;;;2.77;100.00;99052.28;5025219;28;20221;-72
2021/12/24 04:12:45;;;;;;;23.87;12.50;;;;;;;2.78;100.00;99052.25;5017913;28;20202;-70
2021/12/24 04:15:14;;;;;;;24.90;12.50;;;;;;;2.74;100.00;99049.75;5022854;28;20204;-70
2021/12/24 04:17:42;;;;;;;22.33;12.07;;;;;;;2.80;100.00;99047.06;5018606;28;20199;-71
2021/12/24 04:25:40;;;;;;;22.67;11.77;;;;;;;2.82;100.00;99064.16;4987505;28;20247;-71
2021/12/24 04:28:06;;;;;;;20.27;11.03;;;;;;;2.82;100.00;99065.91;5019579;28;20228;-71
2021/12/24 04:30:41;;;;;;;20.97;11.00;;;;;;;2.87;100.00;99061.53;5018209;28;20302;-71
2021/12/24 04:33:15;;;;;;;19.70;11.07;;;;;;;2.92;100.00;99051.09;5021157;28;20212;-71
2021/12/24 04:35:45;;;;;;;21.07;12.03;;;;;;;2.93;100.00;99058.81;5031416;28;20239;-72
2021/12/24 04:51:49;;;;;;;19.20;10.63;;;;;;;3.00;100.00;99026.91;5021478;28;20219;-71
2021/12/24 05:02:54;;;;;;;18.13;9.67;;;;;;;3.08;100.00;99025.88;5022207;28;20215;-71
2021/12/24 05:05:25;;;;;;;19.00;10.33;;;;;;;3.05;100.00;99033.72;5023349;28;20211;-70
2021/12/24 05:08:16;;;;;;;17.23;10.33;;;;;;;3.08;100.00;99036.19;5028298;28;20319;-71
2021/12/24 05:10:44;;;;;;;16.13;9.67;;;;;;;3.07;100.00;99037.94;5022137;28;20219;-70
2021/12/24 05:13:15;;;;;;;17.63;9.97;;;;;;;3.07;100.00;99034.50;5025806;28;20215;-71
2021/12/24 05:16:06;;;;;;;17.33;10.67;;;;;;;3.07;100.00;99040.50;5018422;28;20211;-71
2021/12/24 05:21:33;;;;;;;18.57;9.93;;;;;;;3.06;100.00;99038.81;5019409;28;20206;-71
2021/12/24 05:22:09;;;;;;;16.63;9.53;;;;;;;3.09;100.00;99037.91;5018497;28;20252;-71
2021/12/24 05:24:38;;;;;;;16.23;9.27;;;;;;;3.09;100.00;99027.59;5019096;28;20204;-71
2021/12/24 05:27:05;;;;;;;15.80;9.70;;;;;;;3.13;100.00;99024.06;5020769;28;20215;-71
2021/12/24 05:29:33;;;;;;;15.17;9.47;;;;;;;3.11;100.00;99018.94;5023432;28;20234;-71
2021/12/24 05:32:00;;;;;;;15.30;9.57;;;;;;;3.12;100.00;99023.22;5022552;28;20308;-71
2021/12/24 05:34:28;;;;;;;15.50;9.13;;;;;;;3.18;100.00;99022.25;5017016;28;20282;-71
2021/12/24 05:36:56;;;;;;;15.67;8.87;;;;;;;3.18;100.00;99022.25;5031402;28;20199;-71
2021/12/24 05:39:22;;;;;;;16.57;9.63;;;;;;;3.18;100.00;99019.66;5013285;28;20200;-71
2021/12/24 05:41:51;;;;;;;16.93;9.30;;;;;;;3.18;100.00;99017.97;5039989;28;20625;-71
2021/12/24 05:44:18;;;;;;;16.57;8.60;;;;;;;3.23;100.00;99017.84;5015084;28;20673;-71
2021/12/24 05:46:50;;;;;;;17.30;9.43;;;;;;;3.24;100.00;99011.81;5029125;28;20218;-71
2021/12/24 05:49:38;;;;;;;16.07;8.77;;;;;;;3.21;100.00;99010.16;5014251;28;20224;-71
2021/12/24 05:52:23;;;;;;;14.03;9.40;;;;;;;3.24;100.00;99006.66;5017149;28;20825;-70
2021/12/24 05:54:56;;;;;;;15.90;9.03;;;;;;;3.28;100.00;99010.88;5025209;28;20203;-71
2021/12/24 05:57:23;;;;;;;15.23;8.47;;;;;;;3.29;100.00;99006.56;5023766;28;20258;-70
2021/12/24 05:59:50;;;;;;;15.50;8.37;;;;;;;3.33;100.00;99010.78;5017151;28;20207;-71
2021/12/24 06:02:16;;;;;;;15.63;9.17;;;;;;;3.33;100.00;99008.19;5016879;28;20744;-71
2021/12/24 06:04:44;;;;;;;16.13;8.90;;;;;;;3.34;100.00;99008.16;5021964;28;20211;-71
2021/12/24 06:07:11;;;;;;;14.43;8.93;;;;;;;3.36;100.00;99008.09;5019308;28;20204;-70
2021/12/24 06:09:37;;;;;;;14.13;9.17;;;;;;;3.41;100.00;99009.72;5027642;28;20580;-71
2021/12/24 06:12:04;;;;;;;17.57;9.17;;;;;;;3.40;100.00;99008.00;5019536;28;20216;-71
2021/12/24 06:14:31;;;;;;;12.50;8.07;;;;;;;3.42;100.00;99002.84;5021742;28;20218;-71
2021/12/24 06:17:01;;;;;;;13.40;8.00;;;;;;;3.47;100.00;99010.47;5014190;28;20283;-71
2021/12/24 06:19:28;;;;;;;13.93;8.33;;;;;;;3.50;100.00;99000.06;5020806;28;20198;-70
2021/12/24 06:21:57;;;;;;;14.87;8.67;;;;;;;3.50;100.00;98993.19;5021155;28;20595;-71
2021/12/24 06:24:25;;;;;;;15.87;8.23;;;;;;;3.48;100.00;98994.94;5022460;28;20204;-71
2021/12/24 06:26:52;;;;;;;15.37;8.43;;;;;;;3.51;100.00;98994.88;5018249;28;20630;-71
2021/12/24 06:29:20;;;;;;;13.20;8.30;;;;;;;3.52;100.00;98999.16;5026817;28;20227;-70
2021/12/24 06:31:47;;;;;;;12.33;8.37;;;;;;;3.54;100.00;98989.66;5019892;28;20219;-71
2021/12/24 06:34:14;;;;;;;13.37;7.40;;;;;;;3.55;100.00;98995.66;5034027;28;20214;-71
2021/12/24 06:36:43;;;;;;;14.23;7.87;;;;;;;3.58;100.00;98990.44;5024764;28;20850;-71
2021/12/24 06:39:11;;;;;;;11.57;7.20;;;;;;;3.58;100.00;98991.28;5031406;28;20740;-71
2021/12/24 06:41:38;;;;;;;12.43;8.10;;;;;;;3.54;100.00;98986.25;5019858;28;20795;-71
2021/12/24 06:44:09;;;;;;;11.53;7.30;;;;;;;3.63;100.00;98988.59;5030169;28;20548;-71
2021/12/24 06:46:35;;;;;;;11.40;7.37;;;;;;;3.68;100.00;98994.50;5018769;28;20208;-70
2021/12/24 06:49:02;;;;;;;13.87;7.87;;;;;;;3.67;100.00;98997.09;5031105;28;20215;-71
2021/12/24 06:51:28;;;;;;;10.83;7.33;;;;;;;3.65;100.00;98993.72;5016092;28;20224;-71
2021/12/24 06:53:55;;;;;;;12.07;7.70;;;;;;;3.68;100.00;98994.50;5033536;28;20203;-71
2021/12/24 06:56:23;;;;;;;14.50;8.30;;;;;;;3.69;100.00;98983.28;5022303;28;20239;-71
2021/12/24 06:58:50;;;;;;;14.83;7.73;;;;;;;3.73;100.00;98981.47;5023898;28;20286;-71
2021/12/24 07:01:18;;;;;;;13.00;7.77;;;;;;;3.70;100.00;98981.56;5015346;28;20235;-71
2021/12/24 07:03:44;;;;;;;12.67;7.60;;;;;;;3.74;100.00;98981.44;5024618;28;20254;-71
2021/12/24 07:06:11;;;;;;;12.77;7.57;;;;;;;3.70;100.00;98990.16;5022272;28;20613;-72
2021/12/24 07:08:38;;;;;;;13.50;7.90;;;;;;;3.72;100.00;98983.22;5026075;28;20237;-71
2021/12/24 07:11:05;;;;;;;13.33;7.63;;;;;;;3.76;100.00;98986.56;5018161;28;20228;-71
2021/12/24 07:13:33;;;;;;;10.70;7.70;;;;;;;3.78;100.00;98982.22;5030338;28;20199;-71
2021/12/24 07:15:59;;;;;;;12.17;7.77;;;;;;;3.81;100.00;98987.28;5018455;28;20208;-71
2021/12/24 07:18:26;;;;;;;12.60;8.17;;;;;;;3.84;100.00;98989.81;5023174;28;20204;-71
2021/12/24 07:20:52;;;;;;;12.63;8.10;;;;;;;3.89;100.00;98987.13;5018400;28;20224;-71
2021/12/24 07:23:18;;;;;;;13.07;8.17;;;;;;;3.88;100.00;98986.25;5024293;28;20694;-70
2021/12/24 07:25:46;;;;;;;11.87;7.50;;;;;;;3.92;100.00;98980.16;5016821;28;20222;-71
2021/12/24 07:28:13;;;;;;;12.03;8.17;;;;;;;3.95;100.00;98976.66;5030191;28;20295;-70
2021/12/24 07:30:40;;;;;;;12.90;7.93;;;;;;;3.97;100.00;98978.31;5020460;28;20662;-71
2021/12/24 07:33:07;;;;;;;13.50;8.53;;;;;;;3.98;100.00;98972.25;5024935;28;20217;-70
2021/12/24 07:35:33;;;;;;;14.43;8.20;;;;;;;4.04;100.00;98985.88;5020860;28;20209;-71
2021/12/24 07:37:59;;;;;;;15.13;8.73;;;;;;;4.06;100.00;98984.09;5017868;28;20665;-71
2021/12/24 07:40:27;;;;;;;13.93;8.30;;;;;;;4.07;100.00;98981.50;5022861;28;20223;-71
2021/12/24 07:42:55;;;;;;;16.90;9.20;;;;;;;4.08;100.00;98983.19;5032638;28;20218;-71
2021/12/24 07:45:21;;;;;;;17.47;9.97;;;;;;;4.12;100.00;98978.81;5018768;28;20201;-71
2021/12/24 07:48:06;;;;;;;15.70;9.07;;;;;;;4.14;100.00;98982.19;5021866;28;20204;-71
2021/12/24 07:53:17;;;;;;;15.63;9.53;;;;;;;4.22;100.00;98979.38;5023692;28;20709;-71
2021/12/24 07:55:44;;;;;;;17.00;9.57;;;;;;;4.25;100.00;98969.00;5018246;28;20206;-71
2021/12/24 07:58:13;;;;;;;16.40;8.80;;;;;;;4.32;100.00;98971.34;5016186;28;20238;-71
2021/12/24 08:00:41;;;;;;;15.93;9.70;;;;;;;4.31;100.00;98974.84;5020732;28;20219;-71
2021/12/24 08:03:09;;;;;;;16.47;9.83;;;;;;;4.31;100.00;98966.25;5023893;28;20215;-71
2021/12/24 08:05:39;;;;;;;15.30;9.10;;;;;;;4.35;100.00;98979.03;5024948;28;20198;-70
2021/12/24 08:08:07;;;;;;;16.90;10.23;;;;;;;4.38;100.00;98985.84;5017289;28;20214;-71
2021/12/24 08:10:34;;;;;;;15.90;9.27;;;;;;;4.44;100.00;98966.78;5028193;28;20219;-70
2021/12/24 08:13:01;;;;;;;18.67;9.63;;;;;;;4.45;100.00;98974.47;5018043;28;20208;-71
2021/12/24 08:15:28;;;;;;;14.00;8.60;;;;;;;4.48;100.00;98961.47;5019722;28;20584;-71
2021/12/24 08:17:55;;;;;;;14.57;9.37;;;;;;;4.47;100.00;98948.63;5012931;28;20298;-71
2021/12/24 08:20:24;;;;;;;15.23;8.87;;;;;;;4.51;100.00;98942.47;5015714;28;20754;-70
2021/12/24 08:22:52;;;;;;;17.93;9.97;;;;;;;4.52;100.00;98946.72;5015521;28;20208;-71
2021/12/24 08:25:20;;;;;;;17.13;10.83;;;;;;;4.56;100.00;98945.78;5020961;28;20215;-70
2021/12/24 08:27:47;;;;;;;13.27;9.17;;;;;;;4.54;100.00;98953.56;5014624;28;20214;-71
2021/12/24 08:30:15;;;;;;;11.50;8.70;;;;;;;4.60;100.00;98956.88;5021582;28;20484;-71
2021/12/24 08:32:42;;;;;;;13.70;7.87;;;;;;;4.64;100.00;98942.97;5015160;28;20563;-71
2021/12/24 08:35:11;;;;;;;13.20;8.13;;;;;;;4.65;100.00;98948.09;5029136;28;20208;-71
2021/12/24 08:37:39;;;;;;;15.37;8.07;;;;;;;4.66;100.00;98948.94;5015254;28;20422;-70
2021/12/24 08:40:09;;;;;;;14.60;8.17;;;;;;;4.70;100.00;98948.81;5019350;28;20233;-71
2021/12/24 08:42:35;;;;;;;12.30;8.13;;;;;;;4.76;100.00;98944.34;5017918;28;20214;-71
2021/12/24 08:45:01;;;;;;;15.57;7.97;;;;;;;4.80;100.00;98943.38;5019537;28;20208;-70
2021/12/24 08:47:28;;;;;;;13.00;7.67;;;;;;;4.86;100.00;98931.13;5014268;28;20612;-71
2021/12/24 08:49:54;;;;;;;17.13;9.70;;;;;;;4.87;100.00;98935.41;5020063;28;20219;-71
2021/12/24 08:52:21;;;;;;;15.30;9.07;;;;;;;4.96;100.00;98921.38;5016578;28;20204;-71
2021/12/24 08:54:48;;;;;;;13.50;9.03;;;;;;;5.00;100.00;98920.38;5022405;28;20200;-71
2021/12/24 08:57:15;;;;;;;15.83;9.87;;;;;;;5.03;100.00;98914.25;5015527;28;20208;-71
2021/12/24 08:59:41;;;;;;;16.47;9.83;;;;;;;5.06;100.00;98911.59;5027275;28;20258;-72
2021/12/24 09:02:08;;;;;;;16.83;10.23;;;;;;;5.08;100.00;98914.97;5016111;28;20208;-71
2021/12/24 09:04:35;;;;;;;17.50;10.27;;;;;;;5.07;100.00;98910.72;5018135;28;20204;-72
2021/12/24 09:07:01;;;;;;;18.57;10.10;;;;;;;5.09;100.00;98917.50;5015393;28;22152;-72
2021/12/24 09:09:29;;;;;;;13.90;9.20;;;;;;;5.15;100.00;98913.03;5023697;28;20228;-71
2021/12/24 09:11:57;;;;;;;17.77;9.67;;;;;;;5.19;100.00;98912.91;5017956;28;20605;-71
2021/12/24 09:14:25;;;;;;;16.50;10.17;;;;;;;5.24;100.00;98911.03;5011110;28;20215;-71
2021/12/24 09:16:53;;;;;;;19.87;11.70;;;;;;;5.23;100.00;98909.34;5012415;28;20231;-71
2021/12/24 09:19:24;;;;;;;18.83;11.60;;;;;;;5.25;100.00;98904.13;5018559;28;20240;-71
2021/12/24 09:21:50;;;;;;;22.27;10.60;;;;;;;5.30;100.00;98897.91;5010413;28;20223;-71
2021/12/24 09:24:19;;;;;;;18.87;11.07;;;;;;;5.32;100.00;98903.88;5016119;28;20204;-70
2021/12/24 09:26:45;;;;;;;21.97;11.37;;;;;;;5.35;100.00;98913.28;5010801;28;20216;-70
2021/12/24 09:29:13;;;;;;;21.20;10.63;;;;;;;5.37;100.00;98903.72;5017529;28;20223;-71
2021/12/24 09:31:40;;;;;;;22.47;11.20;;;;;;;5.37;100.00;98902.88;5016362;28;20243;-71
2021/12/24 09:34:06;;;;;;;16.77;9.77;;;;;;;5.37;100.00;98906.31;5021214;28;20213;-72
2021/12/24 09:36:33;;;;;;;17.83;9.30;;;;;;;5.43;100.00;98900.09;5011513;28;20200;-71
2021/12/24 09:39:04;;;;;;;17.83;9.87;;;;;;;5.45;100.00;98901.75;5012339;28;20210;-70
2021/12/24 09:41:31;;;;;;;16.90;10.07;;;;;;;5.47;100.00;98904.25;5016762;28;20247;-71
2021/12/24 09:44:00;;;;;;;17.27;10.27;;;;;;;5.48;100.00;98901.63;5020916;28;20223;-71
2021/12/24 09:46:30;;;;;;;14.27;9.27;;;;;;;5.49;100.00;98902.50;5016303;28;20704;-72
2021/12/24 09:48:57;;;;;;;14.43;9.30;;;;;;;5.49;100.00;98899.91;5019041;28;20227;-71
2021/12/24 09:51:26;;;;;;;14.10;8.67;;;;;;;5.51;100.00;98898.09;5012909;28;20228;-71
2021/12/24 09:53:53;;;;;;;15.93;8.93;;;;;;;5.61;100.00;98894.31;5024249;28;20729;-70
2021/12/24 09:56:21;;;;;;;12.17;8.33;;;;;;;5.64;100.00;98893.38;5017233;28;20215;-72
2021/12/24 09:58:48;;;;;;;11.43;7.83;;;;;;;5.69;100.00;98894.06;5014234;28;20204;-72
2021/12/24 10:01:29;;;;;;;11.47;7.40;;;;;;;5.70;100.00;98890.59;5016822;28;20224;-72
2021/12/24 10:04:02;;;;;;;11.30;6.83;;;;;;;5.78;100.00;98878.22;5012323;28;20306;-71
2021/12/24 10:06:28;;;;;;;10.97;6.70;;;;;;;5.83;100.00;98885.84;5018566;28;20277;-71
2021/12/24 10:09:01;;;;;;;11.60;6.97;;;;;;;5.84;100.00;98892.69;5013413;28;20218;-71
2021/12/24 10:11:29;;;;;;;11.60;7.20;;;;;;;5.84;100.00;98887.50;5018160;28;20223;-71
2021/12/24 10:14:04;;;;;;;11.27;6.00;;;;;;;5.89;100.00;98888.19;5024917;28;20203;-72
2021/12/24 10:16:32;;;;;;;9.90;6.63;;;;;;;5.88;100.00;98889.94;5015460;28;20747;-71
2021/12/24 10:19:00;;;;;;;12.37;7.50;;;;;;;5.90;100.00;98879.56;5011013;28;20218;-70
2021/12/24 10:21:28;;;;;;;11.80;7.33;;;;;;;5.93;100.00;98876.00;5011467;28;20220;-71
2021/12/24 10:23:56;;;;;;;10.20;6.47;;;;;;;5.93;100.00;98878.59;5017901;28;20233;-72
2021/12/24 10:26:26;;;;;;;10.13;7.10;;;;;;;5.97;100.00;98870.72;5023243;28;20214;-70
2021/12/24 10:29:00;;;;;;;10.63;6.70;;;;;;;6.02;100.00;98871.38;5012405;28;20677;-72
2021/12/24 10:31:29;;;;;;;10.00;7.20;;;;;;;6.12;100.00;98866.75;5018767;28;20220;-72
2021/12/24 10:34:19;;;;;;;10.70;7.43;;;;;;;6.12;100.00;98865.88;5014240;28;20215;-70
2021/12/24 10:36:55;;;;;;;9.20;6.43;;;;;;;6.11;100.00;98864.22;5019360;28;20208;-71
2021/12/24 10:39:23;;;;;;;11.70;8.03;;;;;;;6.13;100.00;98865.81;5013063;28;20183;-71
2021/12/24 10:41:52;;;;;;;11.07;7.40;;;;;;;6.13;100.00;98855.47;5011333;28;20232;-72
2021/12/24 10:44:21;;;;;;;8.87;7.17;;;;;;;6.19;100.00;98863.03;5013578;28;20196;-72
2021/12/24 10:46:59;;;;;;;10.50;7.70;;;;;;;6.19;100.00;98852.69;5013874;28;20205;-71
2021/12/24 10:49:38;;;;;;;9.30;7.27;;;;;;;6.20;100.00;98856.09;5011477;28;20216;-71
2021/12/24 10:52:14;;;;;;;10.73;7.77;;;;;;;6.23;100.00;98843.91;5008061;28;20303;-71
2021/12/24 10:54:52;;;;;;;10.07;7.23;;;;;;;6.23;100.00;98846.47;5005901;28;20201;-72
2021/12/24 10:57:23;;;;;;;10.20;6.27;;;;;;;6.22;100.00;98837.03;5010593;28;20215;-71
2021/12/24 10:59:51;;;;;;;9.57;7.27;;;;;;;6.27;100.00;98846.38;5012352;28;20254;-71
2021/12/24 11:02:19;;;;;;;9.80;6.50;;;;;;;6.28;100.00;98848.91;5008080;28;20201;-70
2021/12/24 11:04:47;;;;;;;9.70;7.10;;;;;;;6.33;100.00;98846.13;5014241;28;20200;-72
2021/12/24 11:07:32;;;;;;;11.10;6.70;;;;;;;6.35;100.00;98842.59;5013470;28;20208;-71
2021/12/24 11:10:11;;;;;;;10.27;6.20;;;;;;;6.42;100.00;98831.13;5010992;28;20309;-70
2021/12/24 11:12:39;;;;;;;10.50;6.50;;;;;;;6.42;100.00;98822.50;5014963;28;20200;-71
2021/12/24 11:15:18;;;;;;;10.03;6.50;;;;;;;6.46;100.00;98821.50;5012841;28;20652;-71
2021/12/24 11:17:45;;;;;;;7.50;5.70;;;;;;;6.51;100.00;98829.94;5013119;28;20200;-72
2021/12/24 11:20:13;;;;;;;7.03;5.70;;;;;;;6.55;100.00;98833.25;5017652;28;20227;-71
2021/12/24 11:22:53;;;;;;;7.57;5.73;;;;;;;6.58;100.00;98828.78;5010614;28;20999;-71
2021/12/24 11:25:22;;;;;;;8.77;5.87;;;;;;;6.64;100.00;98830.28;5023618;28;20220;-72
2021/12/24 11:27:49;;;;;;;9.53;5.93;;;;;;;6.65;100.00;98816.44;5018550;28;20214;-71
2021/12/24 11:30:16;;;;;;;8.27;6.03;;;;;;;6.68;100.00;98823.25;5012448;28;20227;-71
2021/12/24 11:32:44;;;;;;;7.23;5.87;;;;;;;6.71;100.00;98811.03;5019174;28;20212;-72
2021/12/24 11:35:13;;;;;;;9.20;6.33;;;;;;;6.71;100.00;98813.63;5002261;28;20224;-71
2021/12/24 11:37:44;;;;;;;8.80;6.00;;;;;;;6.69;100.00;98814.59;5015185;28;20204;-71
2021/12/24 11:40:11;;;;;;;6.97;5.40;;;;;;;6.74;100.00;98808.31;5013980;28;20223;-71
2021/12/24 11:42:40;;;;;;;7.20;5.67;;;;;;;6.80;100.00;98802.03;5014110;28;20258;-72
2021/12/24 11:45:06;;;;;;;9.20;6.20;;;;;;;6.78;100.00;98796.09;5016462;28;20212;-71
2021/12/24 11:47:34;;;;;;;8.73;6.10;;;;;;;6.72;100.00;98802.34;5012470;28;20221;-72
2021/12/24 11:50:04;;;;;;;9.27;5.73;;;;;;;6.72;100.00;98794.59;5010010;28;20225;-71
2021/12/24 11:52:33;;;;;;;8.23;5.73;;;;;;;6.72;100.00;98780.78;5018205;28;20215;-72
2021/12/24 11:55:00;;;;;;;7.20;6.17;;;;;;;6.76;100.00;98787.53;5013099;28;20229;-72
2021/12/24 11:57:27;;;;;;;9.87;6.00;;;;;;;6.78;100.00;98781.38;5019425;28;20203;-71
2021/12/24 11:59:54;;;;;;;6.97;5.27;;;;;;;6.81;100.00;98783.03;5022184;28;21032;-72
2021/12/24 12:02:40;;;;;;;11.20;5.40;;;;;;;6.83;100.00;98791.56;5016644;28;20271;-71
2021/12/24 12:05:15;;;;;;;7.77;5.57;;;;;;;6.83;100.00;98789.81;5011482;28;20244;-72
2021/12/24 12:07:43;;;;;;;9.37;5.70;;;;;;;6.80;100.00;98792.53;5014251;28;20227;-71
2021/12/24 12:10:10;;;;;;;8.63;5.10;;;;;;;6.82;100.00;98792.47;5010815;28;20255;-71
2021/12/24 12:12:39;;;;;;;8.77;5.10;;;;;;;6.89;100.00;98778.34;5028493;28;20602;-72
2021/12/24 12:15:31;;;;;;;9.67;5.07;;;;;;;6.93;100.00;98785.13;5012866;28;20208;-72
2021/12/24 12:17:59;;;;;;;7.77;5.17;;;;;;;6.93;100.00;98781.66;5013518;28;20200;-71
2021/12/24 12:20:44;;;;;;;9.93;5.70;;;;;;;6.97;100.00;98778.91;5015122;28;20712;-72
2021/12/24 12:23:54;;;;;;;6.93;4.90;;;;;;;6.99;100.00;98796.97;5019686;28;20208;-71
2021/12/24 12:26:33;;;;;;;7.13;4.63;;;;;;;7.00;100.00;98799.50;5018290;28;20570;-72
2021/12/24 12:29:28;;;;;;;7.67;4.90;;;;;;;7.04;100.00;98787.28;5021556;28;20548;-72
2021/12/24 12:32:01;;;;;;;6.07;4.43;;;;;;;7.03;100.00;98806.31;5023220;28;20624;-72
2021/12/24 12:35:07;;;;;;;6.37;4.67;;;;;;;7.06;100.00;98805.34;5018165;28;20214;-71
2021/12/24 12:37:44;;;;;;;9.87;5.27;;;;;;;7.09;100.00;98800.88;5016697;28;20249;-71
2021/12/24 12:40:31;;;;;;;7.40;5.33;;;;;;;7.10;100.00;98805.13;5011896;28;20267;-71
2021/12/24 12:43:05;;;;;;;5.80;4.07;;;;;;;7.08;100.00;98800.94;5020851;28;20578;-72
2021/12/24 12:45:55;;;;;;;5.60;3.70;;;;;;;7.07;100.00;98800.09;5019333;28;20229;-72
2021/12/24 12:48:25;;;;;;;5.53;4.17;;;;;;;7.03;100.00;98788.16;5017575;28;20757;-71
2021/12/24 12:50:55;;;;;;;4.87;3.83;;;;;;;7.00;100.00;98789.16;5022341;28;20236;-71
2021/12/24 12:53:29;;;;;;;7.07;4.00;;;;;;;6.98;100.00;98800.47;5025035;28;20204;-72